Time;durP1;ratioP1;P1;durP2;ratioP2;P2;SDS_P1;SDS_P2;PMS_P1;PMS_P2;Temp;Humidity;BMP_temperature;BMP_pressure;BME280_temperature;BME280_humidity;BME280_pressure;Samples;Min_cycle;Max_cycle;Signal;HPM_P1;HPM_P2
2024/04/13 00:01:23;;;;;;;7.72;4.20;;;24.60;99.90;;;;;;5342003;21;20002;-50
2024/04/13 00:03:50;;;;;;;7.57;4.10;;;24.60;99.90;;;;;;5312536;26;20006;-50
2024/04/13 00:06:16;;;;;;;;;;;24.60;99.90;;;;;;5313142;26;20071;-50
2024/04/13 00:08:42;;;;;;;5.10;3.30;;;24.60;99.90;;;;;;5312432;26;19934;-49
2024/04/13 00:11:08;;;;;;;6.10;3.83;;;24.50;99.90;;;;;;5312375;26;20004;-50
2024/04/13 00:13:38;;;;;;;6.68;3.90;;;24.50;99.90;;;;;;5310660;27;19998;-50
2024/04/13 00:16:04;;;;;;;6.70;3.97;;;24.50;99.90;;;;;;5310342;27;20010;-50
2024/04/13 00:18:33;;;;;;;6.47;3.92;;;24.50;99.90;;;;;;5312495;26;20012;-51
2024/04/13 00:21:00;;;;;;;6.68;4.13;;;24.50;99.90;;;;;;5312207;26;20002;-50
2024/04/13 00:23:26;;;;;;;7.13;3.58;;;24.50;99.90;;;;;;5312166;26;20434;-50
2024/04/13 00:25:53;;;;;;;6.45;4.10;;;24.50;99.90;;;;;;5312011;26;20070;-51
2024/04/13 00:28:19;;;;;;;5.15;3.50;;;24.50;99.90;;;;;;5310292;27;20001;-50
2024/04/13 00:30:45;;;;;;;5.70;3.60;;;24.50;99.90;;;;;;5310236;27;20005;-51
2024/04/13 00:33:11;;;;;;;5.13;3.50;;;24.50;99.90;;;;;;5311876;26;20016;-50
2024/04/13 00:35:37;;;;;;;4.63;3.50;;;24.50;99.90;;;;;;5312016;26;20220;-51
2024/04/13 00:38:04;;;;;;;7.20;3.75;;;24.50;99.90;;;;;;5311888;26;20453;-50
2024/04/13 00:40:30;;;;;;;5.70;3.65;;;24.40;99.90;;;;;;5311535;26;20008;-50
2024/04/13 00:43:25;;;;;;;5.18;3.90;;;24.40;99.90;;;;;;5311803;26;20038;-49
2024/04/13 00:45:55;;;;;;;4.95;3.60;;;24.40;99.90;;;;;;5311018;26;20000;-50
2024/04/13 00:48:25;;;;;;;5.30;3.53;;;24.40;99.90;;;;;;5309976;27;19994;-51
2024/04/13 00:51:17;;;;;;;5.47;3.75;;;24.40;99.90;;;;;;5311887;26;20013;-50
2024/04/13 00:53:43;;;;;;;6.53;3.85;;;24.40;99.90;;;;;;5311666;26;20332;-50
2024/04/13 00:56:11;;;;;;;5.10;3.80;;;24.40;99.90;;;;;;5309854;27;20008;-50
2024/04/13 00:58:40;;;;;;;5.72;3.85;;;24.40;99.90;;;;;;5311772;26;20022;-52
2024/04/13 01:01:08;;;;;;;4.70;3.78;;;24.40;99.90;;;;;;5312354;26;20002;-50
2024/04/13 01:03:35;;;;;;;6.03;3.55;;;24.30;99.90;;;;;;5311669;26;20049;-50
2024/04/13 01:06:01;;;;;;;5.70;3.47;;;24.40;99.90;;;;;;5311608;26;20001;-49
2024/04/13 01:08:28;;;;;;;6.20;3.63;;;24.30;99.90;;;;;;5311650;26;20012;-51
2024/04/13 01:11:00;;;;;;;6.18;3.00;;;24.30;99.90;;;;;;5311504;26;20031;-49
2024/04/13 01:13:27;;;;;;;5.30;3.40;;;24.30;99.90;;;;;;5310033;27;20010;-49
2024/04/13 01:15:52;;;;;;;4.00;3.33;;;24.30;99.90;;;;;;5311457;26;20001;-49
2024/04/13 01:18:18;;;;;;;3.45;2.58;;;24.30;99.90;;;;;;5309716;27;20390;-49
2024/04/13 01:20:44;;;;;;;4.20;3.25;;;24.30;99.90;;;;;;5311641;26;20001;-49
2024/04/13 01:23:12;;;;;;;6.13;3.75;;;24.30;99.90;;;;;;5311394;26;20010;-49
2024/04/13 01:25:40;;;;;;;4.45;3.10;;;24.30;99.90;;;;;;5311533;26;20248;-49
2024/04/13 01:28:07;;;;;;;5.80;3.50;;;24.30;99.90;;;;;;5311410;26;20454;-49
2024/04/13 01:30:34;;;;;;;5.43;3.50;;;24.30;99.90;;;;;;5311228;26;20012;-49
2024/04/13 01:33:01;;;;;;;5.63;3.38;;;24.30;99.90;;;;;;5311125;26;20002;-50
2024/04/13 01:35:27;;;;;;;5.93;3.67;;;24.20;99.90;;;;;;5311098;26;20001;-49
2024/04/13 01:37:53;;;;;;;6.13;3.85;;;24.20;99.90;;;;;;5311260;26;20335;-49
2024/04/13 01:40:18;;;;;;;6.20;3.97;;;24.20;99.90;;;;;;5311351;26;20012;-49
2024/04/13 01:42:45;;;;;;;6.00;3.67;;;24.20;99.90;;;;;;5309492;27;19998;-49
2024/04/13 01:45:12;;;;;;;6.40;3.63;;;24.20;99.90;;;;;;5309425;27;20010;-50
2024/04/13 01:47:39;;;;;;;5.75;3.30;;;24.20;99.90;;;;;;5311100;26;20260;-50
2024/04/13 01:50:05;;;;;;;5.05;2.90;;;24.20;99.90;;;;;;5311171;26;20528;-49
2024/04/13 01:52:31;;;;;;;5.20;3.30;;;24.20;99.90;;;;;;5310951;26;20013;-50
2024/04/13 01:54:57;;;;;;;4.70;3.42;;;24.20;99.90;;;;;;5310822;26;20367;-50
2024/04/13 01:57:23;;;;;;;5.63;3.30;;;24.20;99.90;;;;;;5310807;26;20012;-50
2024/04/13 01:59:48;;;;;;;4.30;3.08;;;24.20;99.90;;;;;;5311212;26;19997;-50
2024/04/13 02:02:14;;;;;;;4.53;2.90;;;24.20;99.90;;;;;;5311134;26;20001;-50
2024/04/13 02:04:40;;;;;;;4.95;3.30;;;24.10;99.90;;;;;;5311131;26;20001;-50
2024/04/13 02:07:06;;;;;;;4.03;3.08;;;24.10;99.90;;;;;;5312586;27;20446;-50
2024/04/13 02:09:33;;;;;;;5.65;3.33;;;24.20;99.90;;;;;;5313887;26;20001;-50
2024/04/13 02:12:02;;;;;;;5.55;3.63;;;24.10;99.90;;;;;;5313900;26;20040;-50
2024/04/13 02:14:28;;;;;;;7.25;3.28;;;24.10;99.90;;;;;;5314169;26;20450;-49
2024/04/13 02:16:54;;;;;;;4.40;3.20;;;24.10;99.90;;;;;;5312028;27;20013;-50
2024/04/13 02:19:20;;;;;;;5.72;3.13;;;24.10;99.90;;;;;;5313982;26;20096;-51
2024/04/13 02:21:47;;;;;;;4.60;3.00;;;24.10;99.90;;;;;;5313672;26;19997;-50
2024/04/13 02:24:13;;;;;;;5.57;3.40;;;24.10;99.90;;;;;;5311950;27;20450;-49
2024/04/13 02:26:39;;;;;;;4.38;3.17;;;24.10;99.90;;;;;;5313440;26;20012;-50
2024/04/13 02:29:05;;;;;;;6.00;3.00;;;24.10;99.90;;;;;;5311891;27;20426;-50
2024/04/13 02:31:32;;;;;;;5.32;3.20;;;24.10;99.90;;;;;;5311806;27;20017;-50
2024/04/13 02:33:59;;;;;;;6.10;3.67;;;24.10;99.90;;;;;;5313629;26;20001;-50
2024/04/13 02:36:24;;;;;;;4.40;3.33;;;24.00;99.90;;;;;;5313419;26;20344;-51
2024/04/13 02:38:50;;;;;;;4.70;2.78;;;24.00;99.90;;;;;;5313697;26;20011;-50
2024/04/13 02:41:16;;;;;;;4.38;3.17;;;24.00;99.90;;;;;;5313602;26;20480;-50
2024/04/13 02:43:42;;;;;;;4.03;2.83;;;24.00;99.90;;;;;;5313423;26;19998;-50
2024/04/13 02:46:09;;;;;;;3.75;2.80;;;24.00;99.90;;;;;;5311581;27;20501;-49
2024/04/13 02:48:39;;;;;;;3.67;2.58;;;24.00;99.90;;;;;;5313338;26;20002;-50
2024/04/13 02:51:08;;;;;;;3.35;2.53;;;24.00;99.90;;;;;;5313524;26;20029;-50
2024/04/13 02:53:35;;;;;;;4.85;3.13;;;24.00;99.90;;;;;;5313379;26;20342;-50
2024/04/13 02:56:02;;;;;;;4.33;2.57;;;24.00;99.90;;;;;;5313093;26;20432;-49
2024/04/13 02:58:27;;;;;;;3.20;2.50;;;24.00;99.90;;;;;;5313254;26;20009;-49
2024/04/13 03:00:54;;;;;;;6.05;3.00;;;24.00;99.90;;;;;;5332108;21;19997;-55
2024/04/13 03:03:20;;;;;;;4.53;3.25;;;24.00;99.90;;;;;;5348207;26;20007;-55
2024/04/13 03:05:46;;;;;;;4.72;2.60;;;24.00;99.90;;;;;;5347777;26;20067;-56
2024/04/13 03:08:12;;;;;;;3.78;2.72;;;24.00;99.90;;;;;;5347543;26;20024;-55
2024/04/13 03:10:38;;;;;;;4.75;2.90;;;23.90;99.90;;;;;;5347658;26;20003;-55
2024/04/13 03:13:05;;;;;;;3.28;2.42;;;23.90;99.90;;;;;;5347570;26;20003;-55
2024/04/13 03:15:31;;;;;;;;;;;23.90;99.90;;;;;;5348356;26;20128;-57
2024/04/13 03:17:57;;;;;;;5.43;2.60;;;23.90;99.90;;;;;;5346604;26;19934;-56
2024/04/13 03:20:23;;;;;;;4.70;3.25;;;23.90;99.90;;;;;;5347802;26;20008;-56
2024/04/13 03:22:49;;;;;;;4.47;2.58;;;23.90;99.90;;;;;;5347554;26;19993;-56
2024/04/13 03:25:15;;;;;;;4.45;2.50;;;23.90;99.90;;;;;;5347555;26;20325;-56
2024/04/13 03:27:41;;;;;;;4.00;2.13;;;23.90;99.90;;;;;;5347671;26;19993;-56
2024/04/13 03:30:07;;;;;;;3.33;2.40;;;23.80;99.90;;;;;;5347528;26;19993;-60
2024/04/13 03:32:33;;;;;;;2.97;2.28;;;23.80;99.90;;;;;;5347390;26;19997;-56
2024/04/13 03:34:59;;;;;;;4.85;2.53;;;23.80;99.90;;;;;;5347163;26;19993;-56
2024/04/13 03:37:25;;;;;;;4.78;2.58;;;23.80;99.90;;;;;;5347620;26;20421;-55
2024/04/13 03:39:50;;;;;;;4.22;2.72;;;23.80;99.90;;;;;;5347649;26;19993;-55
2024/04/13 03:42:16;;;;;;;3.85;2.65;;;23.80;99.90;;;;;;5347639;26;20008;-56
2024/04/13 03:44:42;;;;;;;4.38;2.25;;;23.80;99.90;;;;;;5347166;26;20003;-56
2024/04/13 03:47:08;;;;;;;4.82;3.20;;;23.80;99.90;;;;;;5345369;26;20007;-55
2024/04/13 03:49:33;;;;;;;3.97;2.45;;;23.80;99.90;;;;;;5326991;26;20012;-55
2024/04/13 03:51:59;;;;;;;4.68;2.80;;;23.80;99.90;;;;;;5313704;26;20063;-55
2024/04/13 03:54:25;;;;;;;5.68;2.15;;;23.80;99.90;;;;;;5343333;26;20071;-56
2024/04/13 03:56:51;;;;;;;2.85;2.08;;;23.80;99.90;;;;;;5343371;26;19989;-55
2024/04/13 03:59:18;;;;;;;5.60;3.13;;;23.80;99.90;;;;;;5331712;26;20002;-56
2024/04/13 04:01:43;;;;;;;17.40;5.37;;;23.80;99.90;;;;;;5309717;27;20002;-56
2024/04/13 04:04:09;;;;;;;10.32;3.47;;;23.80;99.90;;;;;;5309077;26;20264;-56
2024/04/13 04:06:35;;;;;;;4.68;2.42;;;23.80;99.90;;;;;;5308567;27;20013;-56
2024/04/13 04:09:01;;;;;;;8.77;3.08;;;23.80;99.90;;;;;;5308790;26;20381;-56
2024/04/13 04:11:27;;;;;;;5.78;2.50;;;23.70;99.90;;;;;;5307097;27;20008;-56
2024/04/13 04:13:53;;;;;;;10.23;4.05;;;23.80;99.90;;;;;;5308982;27;20101;-56
2024/04/13 04:16:19;;;;;;;5.68;3.30;;;23.80;99.90;;;;;;5309747;27;20430;-56
2024/04/13 04:18:44;;;;;;;7.82;3.20;;;23.70;99.90;;;;;;5312101;27;20009;-56
2024/04/13 04:21:10;;;;;;;9.77;3.30;;;23.70;99.90;;;;;;5312067;27;20013;-56
2024/04/13 04:23:36;;;;;;;5.72;2.75;;;23.70;99.90;;;;;;5311983;27;20001;-55
2024/04/13 04:26:02;;;;;;;6.53;2.67;;;23.70;99.90;;;;;;5312100;27;19998;-56
2024/04/13 04:28:27;;;;;;;6.75;2.58;;;23.70;99.90;;;;;;5311837;27;20002;-56
2024/04/13 04:30:53;;;;;;;7.90;2.83;;;23.70;99.90;;;;;;5312498;26;20002;-56
2024/04/13 04:33:19;;;;;;;4.40;2.50;;;23.70;99.90;;;;;;5312112;27;20508;-56
2024/04/13 04:35:45;;;;;;;4.85;2.80;;;23.70;99.90;;;;;;5312011;27;20005;-57
2024/04/13 04:38:12;;;;;;;4.53;2.08;;;23.70;99.90;;;;;;5312226;26;20442;-56
2024/04/13 04:40:41;;;;;;;5.45;3.17;;;23.70;99.90;;;;;;5311894;27;20002;-56
2024/04/13 04:43:06;;;;;;;6.13;2.92;;;23.60;99.90;;;;;;5311963;27;20001;-57
2024/04/13 04:45:34;;;;;;;5.07;2.70;;;23.70;99.90;;;;;;5311952;26;20009;-56
2024/04/13 04:48:00;;;;;;;;;;;23.60;99.90;;;;;;5312442;27;20311;-56
2024/04/13 04:50:27;;;;;;;9.98;2.95;;;23.60;99.90;;;;;;5339164;26;19926;-57
2024/04/13 04:52:53;;;;;;;7.88;2.97;;;23.60;99.90;;;;;;5312053;26;20071;-56
2024/04/13 04:55:18;;;;;;;4.50;2.53;;;23.60;99.90;;;;;;5311676;26;20511;-56
2024/04/13 04:57:44;;;;;;;4.85;2.63;;;23.60;99.90;;;;;;5311612;27;19993;-56
2024/04/13 05:00:13;;;;;;;5.55;2.55;;;23.60;99.90;;;;;;5311624;27;20422;-55
2024/04/13 05:02:41;;;;;;;6.22;2.10;;;23.60;99.90;;;;;;5311558;26;19998;-56
2024/04/13 05:05:08;;;;;;;4.90;2.83;;;23.50;99.90;;;;;;5311630;26;20341;-56
2024/04/13 05:07:34;;;;;;;;;;;23.50;99.90;;;;;;5311974;27;19997;-56
2024/04/13 05:10:00;;;;;;;5.88;2.55;;;23.50;99.90;;;;;;5311893;26;19937;-57
2024/04/13 05:12:25;;;;;;;6.28;2.45;;;23.50;99.90;;;;;;5311788;26;20008;-56
2024/04/13 05:14:51;;;;;;;5.95;2.22;;;23.50;99.90;;;;;;5309812;26;20043;-56
2024/04/13 05:17:17;;;;;;;4.35;2.50;;;23.50;99.90;;;;;;5311415;27;19993;-56
2024/04/13 05:19:43;;;;;;;6.28;2.40;;;23.50;99.90;;;;;;5311399;27;19998;-56
2024/04/13 05:22:09;;;;;;;5.68;2.72;;;23.50;99.90;;;;;;5311323;27;19993;-56
2024/04/13 05:24:37;;;;;;;5.65;2.40;;;23.50;99.90;;;;;;5311362;26;20071;-56
2024/04/13 05:27:06;;;;;;;3.22;2.30;;;23.50;99.90;;;;;;5311278;27;20005;-57
2024/04/13 05:29:36;;;;;;;5.10;2.72;;;23.50;99.90;;;;;;5311248;26;20501;-57
2024/04/13 05:32:04;;;;;;;3.60;2.20;;;23.50;99.90;;;;;;5311076;26;19998;-58
2024/04/13 05:34:29;;;;;;;5.13;2.67;;;23.50;99.90;;;;;;5311597;26;20400;-56
2024/04/13 05:36:55;;;;;;;5.88;2.70;;;23.50;99.90;;;;;;5309509;26;20006;-57
2024/04/13 05:39:22;;;;;;;6.32;2.65;;;23.50;99.90;;;;;;5309952;26;20427;-56
2024/04/13 05:41:48;;;;;;;4.78;2.42;;;23.40;99.90;;;;;;5309520;26;20449;-56
2024/04/13 05:44:14;;;;;;;4.00;2.30;;;23.50;99.90;;;;;;5309162;27;19998;-56
2024/04/13 05:46:40;;;;;;;4.18;2.25;;;23.40;99.90;;;;;;5309210;26;20009;-56
2024/04/13 05:49:05;;;;;;;6.35;2.88;;;23.40;99.90;;;;;;5310844;26;20008;-57
2024/04/13 05:51:31;;;;;;;5.03;2.33;;;23.40;99.90;;;;;;5310804;27;20049;-55
2024/04/13 05:53:57;;;;;;;4.13;2.42;;;23.40;99.90;;;;;;5310856;27;20009;-61
2024/04/13 05:56:23;;;;;;;4.38;2.20;;;23.40;99.90;;;;;;5310633;27;20001;-55
2024/04/13 05:58:48;;;;;;;8.40;2.95;;;23.40;99.90;;;;;;5310840;27;20002;-55
2024/04/13 06:01:14;;;;;;;4.18;2.38;;;23.40;99.90;;;;;;5310634;27;20080;-55
2024/04/13 06:03:40;;;;;;;3.92;2.08;;;23.40;99.90;;;;;;5310782;26;20553;-56
2024/04/13 06:06:06;;;;;;;4.07;2.42;;;23.40;99.90;;;;;;5310770;26;20016;-56
2024/04/13 06:08:33;;;;;;;5.38;2.33;;;23.40;99.90;;;;;;5310952;27;20005;-57
2024/04/13 06:10:59;;;;;;;4.50;2.65;;;23.40;99.90;;;;;;5310989;27;20012;-55
2024/04/13 06:13:24;;;;;;;2.90;2.28;;;23.40;99.90;;;;;;5310335;27;20013;-55
2024/04/13 06:15:50;;;;;;;4.20;2.47;;;23.40;99.90;;;;;;5310617;27;20009;-55
2024/04/13 06:18:17;;;;;;;4.63;2.13;;;23.40;99.90;;;;;;5310886;26;20009;-55
2024/04/13 06:20:43;;;;;;;3.30;2.45;;;23.30;99.90;;;;;;5308644;26;20083;-54
2024/04/13 06:23:09;;;;;;;2.70;2.00;;;23.30;99.90;;;;;;5310401;27;20005;-55
2024/04/13 06:25:35;;;;;;;2.90;2.15;;;23.40;99.90;;;;;;5310488;27;20001;-56
2024/04/13 06:28:00;;;;;;;3.08;2.28;;;23.40;99.90;;;;;;5310781;27;20006;-55
2024/04/13 06:30:26;;;;;;;5.75;2.55;;;23.30;99.90;;;;;;5310466;27;19998;-55
2024/04/13 06:32:53;;;;;;;3.78;2.13;;;23.30;99.90;;;;;;5310307;27;20002;-55
2024/04/13 06:35:19;;;;;;;5.63;2.43;;;23.30;99.90;;;;;;5308359;27;20002;-56
2024/04/13 06:37:45;;;;;;;3.90;2.33;;;23.40;99.90;;;;;;5310271;26;20091;-55
2024/04/13 06:40:12;;;;;;;3.33;2.28;;;23.30;99.90;;;;;;5309968;27;20010;-55
2024/04/13 06:42:38;;;;;;;3.33;2.03;;;23.30;99.90;;;;;;5310171;26;20002;-55
2024/04/13 06:45:04;;;;;;;2.83;2.38;;;23.30;99.90;;;;;;5310228;27;20445;-55
2024/04/13 06:47:30;;;;;;;4.45;2.42;;;23.30;99.90;;;;;;5310086;26;20440;-54
2024/04/13 06:49:56;;;;;;;4.95;2.28;;;23.30;99.90;;;;;;5310032;27;19998;-55
2024/04/13 06:52:21;;;;;;;5.90;2.17;;;23.30;99.90;;;;;;5312981;27;19997;-55
2024/04/13 06:54:47;;;;;;;3.53;2.28;;;23.30;99.90;;;;;;5313395;27;20466;-55
2024/04/13 06:57:13;;;;;;;3.85;2.08;;;23.40;99.90;;;;;;5313109;26;20034;-54
2024/04/13 06:59:39;;;;;;;3.92;2.13;;;23.40;99.90;;;;;;5311576;26;19998;-55
2024/04/13 07:02:05;;;;;;;4.53;1.95;;;23.30;99.90;;;;;;5313599;27;20082;-54
2024/04/13 07:04:31;;;;;;;4.45;2.67;;;23.40;99.90;;;;;;5313309;27;20060;-55
2024/04/13 07:06:57;;;;;;;3.28;2.00;;;23.40;99.90;;;;;;5313059;27;20441;-54
2024/04/13 07:09:22;;;;;;;4.55;2.35;;;23.40;99.90;;;;;;5313011;27;20079;-55
2024/04/13 07:11:48;;;;;;;5.20;2.30;;;23.40;99.90;;;;;;5313002;27;20006;-55
2024/04/13 07:14:14;;;;;;;4.70;2.17;;;23.40;99.90;;;;;;5312968;27;20082;-55
2024/04/13 07:16:40;;;;;;;4.90;2.55;;;23.40;99.90;;;;;;5312986;27;20002;-55
2024/04/13 07:19:06;;;;;;;4.50;2.20;;;23.40;99.90;;;;;;5313101;27;19997;-54
2024/04/13 07:21:32;;;;;;;3.90;2.42;;;23.40;99.90;;;;;;5311243;27;20017;-54
2024/04/13 07:23:59;;;;;;;3.60;2.80;;;23.40;99.90;;;;;;5312942;27;19998;-55
2024/04/13 07:26:25;;;;;;;5.75;2.70;;;23.40;99.90;;;;;;5313165;26;20009;-54
2024/04/13 07:28:51;;;;;;;4.40;2.45;;;23.40;99.90;;;;;;5313147;27;20005;-54
2024/04/13 07:31:16;;;;;;;4.25;2.55;;;23.40;99.90;;;;;;5312867;26;20002;-55
2024/04/13 07:33:42;;;;;;;4.28;2.50;;;23.40;99.90;;;;;;5312754;26;20018;-53
2024/04/13 07:36:08;;;;;;;4.57;2.58;;;23.40;99.90;;;;;;5312908;27;20072;-55
2024/04/13 07:38:34;;;;;;;4.93;2.38;;;23.40;99.90;;;;;;5313180;26;19998;-55
2024/04/13 07:41:00;;;;;;;5.55;2.60;;;23.40;99.90;;;;;;5312846;27;20450;-54
2024/04/13 07:43:26;;;;;;;4.38;2.75;;;23.40;99.90;;;;;;5312776;26;20012;-55
2024/04/13 07:45:52;;;;;;;3.97;2.97;;;23.40;99.90;;;;;;5312463;26;20464;-55
2024/04/13 07:48:17;;;;;;;7.70;2.40;;;23.40;99.90;;;;;;5312639;26;20008;-55
2024/04/13 07:50:43;;;;;;;3.78;2.40;;;23.40;99.90;;;;;;5312802;27;20014;-54
2024/04/13 07:53:09;;;;;;;5.93;2.88;;;23.40;99.90;;;;;;5339617;26;19998;-56
2024/04/13 07:55:35;;;;;;;4.75;2.35;;;23.40;99.90;;;;;;5312625;26;20401;-56
2024/04/13 07:58:01;;;;;;;4.80;2.53;;;23.50;99.90;;;;;;5312377;27;20007;-55
2024/04/13 08:00:26;;;;;;;5.70;3.25;;;23.50;99.90;;;;;;5312615;27;20001;-55
2024/04/13 08:02:52;;;;;;;4.88;2.53;;;23.50;99.90;;;;;;5311668;26;19998;-56
2024/04/13 08:05:18;;;;;;;3.72;2.75;;;23.50;99.90;;;;;;5312531;26;20001;-55
2024/04/13 08:07:44;;;;;;;3.35;2.33;;;23.50;99.90;;;;;;5312563;27;19997;-55
2024/04/13 08:10:09;;;;;;;4.57;2.72;;;23.50;99.90;;;;;;5312494;27;19998;-56
2024/04/13 08:12:35;;;;;;;4.95;2.88;;;23.50;99.90;;;;;;5312531;26;20008;-55
2024/04/13 08:15:02;;;;;;;4.68;2.83;;;23.50;99.90;;;;;;5312126;26;20001;-56
2024/04/13 08:17:28;;;;;;;5.43;2.70;;;23.50;99.90;;;;;;5312216;27;20035;-55
2024/04/13 08:19:55;;;;;;;5.95;2.70;;;23.50;99.90;;;;;;5312100;27;20001;-55
2024/04/13 08:22:20;;;;;;;5.40;2.70;;;23.50;99.90;;;;;;5312105;27;20076;-54
2024/04/13 08:24:47;;;;;;;3.88;2.92;;;23.50;99.90;;;;;;5312180;26;20013;-55
2024/04/13 08:27:13;;;;;;;4.28;3.13;;;23.50;99.90;;;;;;5312188;27;20145;-56
2024/04/13 08:29:39;;;;;;;4.82;3.05;;;23.50;99.90;;;;;;5310474;27;20005;-55
2024/04/13 08:32:05;;;;;;;4.55;3.10;;;23.50;99.90;;;;;;5310489;27;19998;-55
2024/04/13 08:34:31;;;;;;;4.50;2.60;;;23.50;99.90;;;;;;5311900;26;20009;-56
2024/04/13 08:36:56;;;;;;;5.22;2.60;;;23.50;99.90;;;;;;5311768;26;20017;-56
2024/04/13 08:39:22;;;;;;;4.35;2.90;;;23.50;99.90;;;;;;5311723;27;20018;-55
2024/04/13 08:42:03;;;;;;;7.97;3.70;;;23.50;99.90;;;;;;5312021;26;19997;-55
2024/04/13 08:44:30;;;;;;;5.20;3.13;;;23.50;99.90;;;;;;5311761;26;20002;-55
2024/04/13 08:47:00;;;;;;;4.45;3.05;;;23.50;99.90;;;;;;5311716;26;20008;-55
2024/04/13 08:49:39;;;;;;;4.93;3.35;;;23.50;99.90;;;;;;5311519;27;20002;-55
2024/04/13 08:52:09;;;;;;;3.92;2.97;;;23.50;99.90;;;;;;5311657;26;20001;-55
2024/04/13 08:54:35;;;;;;;5.05;3.03;;;23.50;99.90;;;;;;5311450;26;20011;-56
2024/04/13 08:57:06;;;;;;;5.70;3.17;;;23.50;99.90;;;;;;5311208;27;20080;-55
2024/04/13 08:59:33;;;;;;;3.95;2.67;;;23.50;99.90;;;;;;5311249;26;20404;-56
2024/04/13 09:02:02;;;;;;;4.60;2.90;;;23.50;99.90;;;;;;5310990;26;20002;-56
2024/04/13 09:04:28;;;;;;;4.00;3.17;;;23.50;99.90;;;;;;5311383;26;20071;-55
2024/04/13 09:06:57;;;;;;;13.18;3.53;;;23.50;99.90;;;;;;5311524;26;19997;-56
2024/04/13 09:09:24;;;;;;;5.93;3.17;;;23.60;99.90;;;;;;5311341;26;19998;-56
2024/04/13 09:11:51;;;;;;;6.10;3.38;;;23.50;99.90;;;;;;5311071;26;20500;-56
2024/04/13 09:14:17;;;;;;;4.72;3.15;;;23.60;99.90;;;;;;5309810;27;19998;-55
2024/04/13 09:16:45;;;;;;;4.38;2.40;;;23.60;99.90;;;;;;5311426;27;20437;-56
2024/04/13 09:19:11;;;;;;;6.60;3.65;;;23.60;99.90;;;;;;5311462;26;20438;-56
2024/04/13 09:21:41;;;;;;;4.57;2.97;;;23.60;99.90;;;;;;5311092;27;20002;-56
2024/04/13 09:24:07;;;;;;;5.72;3.00;;;23.60;99.90;;;;;;5311093;26;20013;-56
2024/04/13 09:26:44;;;;;;;9.02;3.45;;;23.60;99.90;;;;;;5311089;26;20031;-56
2024/04/13 09:29:12;;;;;;;5.57;3.15;;;23.60;99.90;;;;;;5311349;26;20016;-55
2024/04/13 09:31:41;;;;;;;4.72;3.42;;;23.60;99.90;;;;;;5309498;27;19998;-55
2024/04/13 09:34:07;;;;;;;4.30;2.90;;;23.60;99.90;;;;;;5311111;27;19997;-57
2024/04/13 09:36:32;;;;;;;5.50;3.30;;;23.60;99.90;;;;;;5311203;27;20327;-55
2024/04/13 09:38:58;;;;;;;7.22;4.57;;;23.60;99.90;;;;;;5310694;26;20434;-56
2024/04/13 09:41:24;;;;;;;3.58;2.95;;;23.60;99.90;;;;;;5310881;27;20393;-56
2024/04/13 09:43:51;;;;;;;5.10;3.38;;;23.60;99.90;;;;;;5309231;26;20096;-57
2024/04/13 09:46:18;;;;;;;5.47;3.53;;;23.60;99.90;;;;;;5310849;26;20005;-57
2024/04/13 09:48:44;;;;;;;7.78;4.07;;;23.60;99.90;;;;;;5311280;27;19997;-55
2024/04/13 09:51:11;;;;;;;6.25;3.15;;;23.70;99.90;;;;;;5311266;26;20071;-56
2024/04/13 09:53:37;;;;;;;4.57;3.03;;;23.70;99.90;;;;;;5310843;26;20450;-56
2024/04/13 09:56:03;;;;;;;4.97;3.47;;;23.70;99.90;;;;;;5310622;26;20228;-55
2024/04/13 09:58:29;;;;;;;6.45;3.35;;;23.70;99.90;;;;;;5310984;26;20071;-55
2024/04/13 10:00:58;;;;;;;4.97;3.60;;;23.70;99.90;;;;;;5310361;27;20002;-55
2024/04/13 10:03:24;;;;;;;6.07;4.15;;;23.70;99.90;;;;;;5310177;26;20442;-56
2024/04/13 10:05:54;;;;;;;6.05;3.72;;;23.70;99.90;;;;;;5310541;27;20002;-55
2024/04/13 10:08:20;;;;;;;7.07;3.45;;;23.70;99.90;;;;;;5310629;26;20002;-56
2024/04/13 10:10:50;;;;;;;4.97;3.65;;;23.70;99.90;;;;;;5310344;27;20013;-56
2024/04/13 10:13:29;;;;;;;4.97;3.65;;;23.70;99.90;;;;;;5310594;26;20033;-57
2024/04/13 10:15:58;;;;;;;7.40;4.50;;;23.80;99.90;;;;;;5310358;27;20037;-56
2024/04/13 10:18:24;;;;;;;6.25;4.03;;;23.80;99.90;;;;;;5310567;26;20010;-56
2024/04/13 10:20:50;;;;;;;6.75;3.95;;;23.80;99.90;;;;;;5310435;26;20034;-56
2024/04/13 10:23:17;;;;;;;9.73;3.63;;;23.80;99.90;;;;;;5310378;26;19998;-56
2024/04/13 10:25:42;;;;;;;4.87;3.37;;;23.80;99.90;;;;;;5309053;26;20362;-57
2024/04/13 10:28:21;;;;;;;12.85;3.78;;;23.80;99.90;;;;;;5313469;27;20012;-56
2024/04/13 10:30:47;;;;;;;6.70;3.42;;;23.80;99.90;;;;;;5313944;27;20017;-56
2024/04/13 10:33:19;;;;;;;8.80;3.30;;;23.90;99.90;;;;;;5313675;26;20346;-56
2024/04/13 10:36:01;;;;;;;7.25;3.28;;;23.90;99.90;;;;;;5311652;26;20005;-55
2024/04/13 10:38:31;;;;;;;6.25;3.75;;;23.90;99.90;;;;;;5313455;26;20033;-55
2024/04/13 10:40:58;;;;;;;5.32;3.28;;;23.90;99.90;;;;;;5313436;27;20001;-56
2024/04/13 10:43:24;;;;;;;4.40;3.30;;;23.90;99.90;;;;;;5313492;27;20423;-55
2024/04/13 10:45:51;;;;;;;5.80;3.63;;;24.00;99.90;;;;;;5313548;26;20002;-56
2024/04/13 10:48:21;;;;;;;5.00;3.10;;;24.00;99.90;;;;;;5313713;26;20001;-56
2024/04/13 10:50:48;;;;;;;7.38;3.58;;;24.00;99.90;;;;;;5313732;26;20075;-57
2024/04/13 10:53:15;;;;;;;7.25;3.80;;;24.00;99.90;;;;;;5314067;26;20013;-56
2024/04/13 10:55:41;;;;;;;11.32;3.78;;;24.00;99.90;;;;;;5313408;27;20454;-57
2024/04/13 10:58:08;;;;;;;8.05;3.97;;;24.00;99.90;;;;;;5311386;26;20074;-55
2024/04/13 11:00:34;;;;;;;7.77;3.63;;;24.10;99.90;;;;;;5312987;26;20044;-55
2024/04/13 11:03:00;;;;;;;5.00;3.28;;;24.00;99.90;;;;;;5313586;27;19998;-55
2024/04/13 11:05:27;;;;;;;10.65;4.20;;;24.10;99.90;;;;;;5313591;27;20005;-55
2024/04/13 11:07:53;;;;;;;7.10;3.83;;;24.10;99.90;;;;;;5311517;27;20009;-57
2024/04/13 11:10:21;;;;;;;8.70;3.92;;;24.10;99.90;;;;;;5313312;27;20072;-56
2024/04/13 11:12:49;;;;;;;6.43;3.58;;;24.10;99.90;;;;;;5313383;26;20009;-55
2024/04/13 11:15:15;;;;;;;6.47;3.67;;;24.10;99.90;;;;;;5313369;27;20005;-57
2024/04/13 11:17:42;;;;;;;5.93;3.20;;;24.20;99.90;;;;;;5313146;26;20046;-56
2024/04/13 11:20:10;;;;;;;8.27;4.07;;;24.20;99.90;;;;;;5311370;26;20401;-57
2024/04/13 11:22:37;;;;;;;6.68;3.72;;;24.20;99.90;;;;;;5312782;26;20013;-56
2024/04/13 11:25:03;;;;;;;10.43;3.53;;;24.20;99.90;;;;;;5312846;27;19997;-55
2024/04/13 11:27:30;;;;;;;7.32;3.42;;;24.20;99.90;;;;;;5312690;27;20016;-56
2024/04/13 11:29:56;;;;;;;5.07;3.60;;;24.20;99.90;;;;;;5312950;26;19997;-56
2024/04/13 11:32:22;;;;;;;8.65;3.20;;;24.20;99.90;;;;;;5312840;27;20072;-55
2024/04/13 11:34:48;;;;;;;7.22;3.38;;;24.20;99.90;;;;;;5313166;26;20009;-56
2024/04/13 11:37:14;;;;;;;5.90;3.10;;;24.30;99.90;;;;;;5311681;26;20071;-56
2024/04/13 11:39:40;;;;;;;5.87;3.57;;;24.30;99.90;;;;;;5312572;27;20037;-57
2024/04/13 11:42:07;;;;;;;9.52;3.95;;;24.30;99.90;;;;;;5312920;27;20232;-56
2024/04/13 11:44:37;;;;;;;7.60;3.40;;;24.30;99.90;;;;;;5311075;27;20034;-57
2024/04/13 11:47:03;;;;;;;5.18;3.03;;;24.30;99.90;;;;;;5312581;26;20322;-57
2024/04/13 11:49:28;;;;;;;7.72;3.88;;;24.40;99.90;;;;;;5312558;26;20012;-57
2024/04/13 11:51:55;;;;;;;6.65;3.92;;;24.40;99.90;;;;;;5312516;27;20466;-58
2024/04/13 11:54:21;;;;;;;6.35;3.05;;;24.40;99.90;;;;;;5313001;26;20462;-57
2024/04/13 11:56:47;;;;;;;5.57;3.42;;;24.40;99.90;;;;;;5312828;26;20012;-55
2024/04/13 11:59:14;;;;;;;9.45;3.63;;;24.40;99.90;;;;;;5312497;26;19998;-57
2024/04/13 12:01:40;;;;;;;6.03;3.05;;;24.40;99.90;;;;;;5312546;26;20350;-56
2024/04/13 12:04:05;;;;;;;7.55;3.47;;;24.50;99.90;;;;;;5312649;27;20005;-56
2024/04/13 12:06:32;;;;;;;8.13;3.97;;;24.50;99.90;;;;;;5312219;26;20012;-56
2024/04/13 12:08:59;;;;;;;6.20;3.37;;;24.50;99.90;;;;;;5312393;27;20029;-56
2024/04/13 12:11:29;;;;;;;7.07;3.17;;;24.50;99.90;;;;;;5312477;26;20289;-56
2024/04/13 12:13:54;;;;;;;6.25;3.25;;;24.50;99.90;;;;;;5312384;27;20009;-56
2024/04/13 12:16:20;;;;;;;8.98;3.85;;;24.50;99.90;;;;;;5312372;27;20412;-57
2024/04/13 12:18:46;;;;;;;5.55;3.15;;;24.60;99.90;;;;;;5312346;27;19999;-57
2024/04/13 12:21:12;;;;;;;9.05;3.35;;;24.60;99.90;;;;;;5312140;27;19998;-57
2024/04/13 12:23:37;;;;;;;4.68;3.00;;;24.60;99.90;;;;;;5312049;26;20002;-56
2024/04/13 12:26:04;;;;;;;5.68;3.38;;;24.60;99.90;;;;;;5311888;27;20002;-56
2024/04/13 12:28:29;;;;;;;7.28;3.33;;;24.60;99.90;;;;;;5312401;26;20009;-58
2024/04/13 12:30:55;;;;;;;6.88;2.85;;;24.60;99.90;;;;;;5312333;27;20009;-56
2024/04/13 12:33:22;;;;;;;10.30;3.00;;;24.70;99.90;;;;;;5312250;26;20075;-58
2024/04/13 12:35:48;;;;;;;6.32;3.50;;;24.70;99.90;;;;;;5310224;26;20036;-56
2024/04/13 12:38:14;;;;;;;7.75;3.00;;;24.70;99.90;;;;;;5310420;27;20008;-56
2024/04/13 12:40:39;;;;;;;5.10;3.35;;;24.70;99.90;;;;;;5310100;26;20005;-56
2024/04/13 12:43:07;;;;;;;5.60;2.75;;;24.70;99.90;;;;;;5311954;26;20002;-56
2024/04/13 12:45:33;;;;;;;5.65;2.88;;;24.70;99.90;;;;;;5311765;27;20003;-56